createdAt,value
2018-09-13T00:00:50.221Z,67.38
2018-09-13T00:03:17.092Z,67.75
2018-09-13T00:05:44.132Z,68.09
2018-09-13T00:08:11.028Z,67.71
2018-09-13T00:10:37.988Z,67.61
2018-09-13T00:13:04.938Z,68.11
2018-09-13T00:15:31.884Z,67.90
2018-09-13T00:17:58.839Z,67.98
2018-09-13T00:20:25.815Z,67.95
2018-09-13T00:22:52.841Z,68.50
2018-09-13T00:25:19.718Z,67.96
2018-09-13T00:27:46.667Z,69.13
2018-09-13T00:30:13.753Z,69.15
2018-09-13T00:32:40.690Z,69.46
2018-09-13T00:35:07.664Z,69.34
2018-09-13T00:37:34.540Z,69.34
2018-09-13T00:40:01.471Z,69.50
2018-09-13T00:42:28.422Z,69.85
2018-09-13T00:44:55.378Z,70.31
2018-09-13T00:47:22.338Z,69.51
2018-09-13T00:49:49.308Z,70.41
2018-09-13T00:52:16.243Z,70.23
2018-09-13T00:54:43.203Z,71.38
2018-09-13T00:57:10.077Z,70.75
2018-09-13T00:59:37.062Z,71.25
2018-09-13T01:02:03.987Z,70.41
2018-09-13T01:04:31.079Z,70.27
2018-09-13T01:06:59.015Z,69.81
2018-09-13T01:09:25.900Z,70.18
2018-09-13T01:11:52.831Z,70.69
2018-09-13T01:14:19.783Z,70.75
2018-09-13T01:16:46.763Z,71.17
2018-09-13T01:19:13.631Z,71.10
2018-09-13T01:21:40.553Z,71.10
2018-09-13T01:24:07.540Z,70.30
2018-09-13T01:26:34.507Z,71.21
2018-09-13T01:29:01.475Z,70.46
2018-09-13T01:31:28.355Z,71.40
2018-09-13T01:33:55.259Z,71.41
2018-09-13T01:36:22.232Z,71.39
2018-09-13T01:38:49.156Z,71.86
2018-09-13T01:41:16.031Z,70.57
2018-09-13T01:43:42.994Z,71.17
2018-09-13T01:46:09.918Z,70.85
2018-09-13T01:48:36.935Z,71.35
2018-09-13T01:51:03.951Z,71.37
2018-09-13T01:53:30.903Z,71.62
2018-09-13T01:55:57.889Z,71.85
2018-09-13T01:58:24.823Z,72.49
2018-09-13T02:00:51.767Z,72.63
2018-09-13T02:03:18.731Z,72.36
2018-09-13T02:05:45.690Z,72.66
2018-09-13T02:08:12.646Z,71.97
2018-09-13T02:10:39.598Z,71.07
2018-09-13T02:13:06.595Z,71.75
2018-09-13T02:15:33.579Z,72.38
2018-09-13T02:18:00.471Z,71.82
2018-09-13T02:20:27.531Z,72.29
2018-09-13T02:22:54.507Z,71.83
2018-09-13T02:25:21.371Z,71.36
2018-09-13T02:27:48.327Z,72.50
2018-09-13T02:30:15.276Z,71.64
2018-09-13T02:32:42.240Z,71.69
2018-09-13T02:35:09.184Z,72.95
2018-09-13T02:37:36.071Z,72.41
2018-09-13T02:40:03.075Z,73.14
2018-09-13T02:42:30.048Z,71.74
2018-09-13T02:44:57.091Z,72.03
2018-09-13T02:47:24.085Z,72.60
2018-09-13T02:49:51.092Z,72.90
2018-09-13T02:52:17.998Z,72.05
2018-09-13T02:54:44.947Z,72.89
2018-09-13T02:57:11.959Z,72.46
2018-09-13T02:59:38.843Z,73.54
2018-09-13T03:02:05.815Z,73.16
2018-09-13T03:04:32.779Z,73.13
2018-09-13T03:06:59.751Z,73.29
2018-09-13T03:09:26.700Z,74.72
2018-09-13T03:11:53.687Z,74.23
2018-09-13T03:14:20.605Z,74.12
2018-09-13T03:16:47.568Z,74.20
2018-09-13T03:19:14.528Z,74.18
2018-09-13T03:21:41.403Z,74.07
2018-09-13T03:24:08.335Z,75.28
2018-09-13T03:26:35.308Z,75.95
2018-09-13T03:29:02.258Z,76.24
2018-09-13T03:31:29.306Z,76.49
2018-09-13T03:33:56.187Z,77.26
2018-09-13T03:36:23.119Z,77.59
2018-09-13T03:38:50.080Z,76.66
2018-09-13T03:41:17.063Z,76.35
2018-09-13T03:43:44.023Z,77.10
2018-09-13T03:46:10.951Z,76.55
2018-09-13T03:48:37.939Z,76.09
2018-09-13T03:51:04.903Z,76.66
2018-09-13T03:53:31.778Z,76.66
2018-09-13T03:55:58.712Z,76.68
2018-09-13T03:58:26.770Z,76.20
2018-09-13T04:00:53.730Z,75.28
2018-09-13T04:03:20.703Z,76.72
2018-09-13T04:05:47.707Z,77.50
2018-09-13T04:08:15.604Z,76.86
2018-09-13T04:10:42.595Z,77.03
2018-09-13T04:13:09.620Z,76.92
2018-09-13T04:15:36.585Z,77.54
2018-09-13T04:18:03.593Z,77.69
2018-09-13T04:20:30.517Z,78.65
2018-09-13T04:22:57.552Z,77.58
2018-09-13T04:25:24.583Z,78.69
2018-09-13T04:27:51.499Z,78.98
2018-09-13T04:30:19.455Z,78.70
2018-09-13T04:32:46.420Z,78.75
2018-09-13T04:35:13.394Z,78.47
2018-09-13T04:37:40.339Z,78.99
2018-09-13T04:40:07.303Z,79.15
2018-09-13T04:42:34.343Z,79.17
2018-09-13T04:45:01.295Z,79.36
2018-09-13T04:47:28.276Z,80.15
2018-09-13T04:49:55.231Z,79.73
2018-09-13T04:52:22.188Z,79.75
2018-09-13T04:54:49.131Z,79.55
2018-09-13T04:57:16.180Z,80.44
2018-09-13T04:59:43.060Z,79.97
2018-09-13T05:02:10.004Z,79.38
2018-09-13T05:04:36.976Z,79.76
2018-09-13T05:07:04.144Z,79.62
2018-09-13T05:09:31.103Z,80.19
2018-09-13T05:11:58.067Z,80.05
2018-09-13T05:14:25.245Z,80.45
2018-09-13T05:16:52.156Z,79.26
2018-09-13T05:19:19.115Z,79.34
2018-09-13T05:21:46.089Z,79.47
2018-09-13T05:24:13.037Z,79.78
2018-09-13T05:26:40.008Z,78.74
2018-09-13T05:29:06.951Z,79.86
2018-09-13T05:31:33.942Z,80.18
2018-09-13T05:34:00.875Z,79.33
2018-09-13T05:36:27.831Z,79.08
2018-09-13T05:38:54.794Z,79.46
2018-09-13T05:41:21.735Z,79.37
2018-09-13T05:43:48.616Z,79.77
2018-09-13T05:46:15.559Z,79.53
2018-09-13T05:48:42.519Z,79.86
2018-09-13T05:51:09.573Z,79.57
2018-09-13T05:53:38.419Z,79.43
2018-09-13T05:56:05.355Z,78.84
2018-09-13T05:58:32.323Z,77.99
2018-09-13T06:00:59.291Z,77.95
2018-09-13T06:03:26.263Z,77.70
2018-09-13T06:05:53.254Z,76.76
2018-09-13T06:08:20.220Z,76.68
2018-09-13T06:10:47.820Z,76.32
2018-09-13T06:13:14.752Z,76.14
2018-09-13T06:15:42.080Z,76.07
2018-09-13T06:18:09.054Z,75.05
2018-09-13T06:20:36.099Z,75.29
2018-09-13T06:23:02.982Z,75.17
2018-09-13T06:25:29.935Z,75.29
2018-09-13T06:27:57.805Z,74.89
2018-09-13T06:30:24.775Z,74.99
2018-09-13T06:32:51.723Z,75.83
2018-09-13T06:35:18.704Z,75.41
2018-09-13T06:37:45.661Z,75.19
2018-09-13T06:40:12.532Z,74.46
2018-09-13T06:42:39.475Z,74.55
2018-09-13T06:45:07.323Z,74.68
2018-09-13T06:47:34.576Z,74.26
2018-09-13T06:50:01.483Z,74.81
2018-09-13T06:52:28.448Z,74.81
2018-09-13T06:54:55.403Z,75.42
2018-09-13T06:57:22.399Z,75.06
2018-09-13T06:59:49.285Z,74.62
2018-09-13T07:02:16.263Z,74.62
2018-09-13T07:04:43.127Z,74.87
2018-09-13T07:07:10.083Z,74.13
2018-09-13T07:09:37.031Z,74.01
2018-09-13T07:12:03.899Z,74.82
2018-09-13T07:14:30.823Z,74.17
2018-09-13T07:16:57.968Z,74.06
2018-09-13T07:19:24.970Z,73.68
2018-09-13T07:21:51.937Z,73.75
2018-09-13T07:24:18.815Z,73.45
2018-09-13T07:26:45.735Z,72.87
2018-09-13T07:29:12.685Z,73.77
2018-09-13T07:31:39.554Z,73.18
2018-09-13T07:34:06.676Z,73.79
2018-09-13T07:36:33.663Z,74.07
2018-09-13T07:39:00.543Z,73.10
2018-09-13T07:41:27.465Z,73.55
2018-09-13T07:43:54.438Z,73.22
2018-09-13T07:46:21.408Z,72.60
2018-09-13T07:48:48.344Z,73.07
2018-09-13T07:51:15.341Z,72.84
2018-09-13T07:53:42.654Z,73.38
2018-09-13T07:56:09.568Z,73.18
2018-09-13T07:58:36.467Z,72.50
2018-09-13T08:01:03.499Z,71.29
2018-09-13T08:03:30.398Z,72.69
2018-09-13T08:05:57.361Z,72.27
2018-09-13T08:08:24.319Z,71.78
2018-09-13T08:10:51.287Z,72.22
2018-09-13T08:13:18.237Z,71.37
2018-09-13T08:15:45.246Z,70.77
2018-09-13T08:18:12.152Z,70.94
2018-09-13T08:20:39.087Z,71.14
2018-09-13T08:23:06.331Z,71.58
2018-09-13T08:25:33.334Z,71.17
2018-09-13T08:28:00.559Z,69.87
2018-09-13T08:30:27.579Z,69.57
2018-09-13T08:32:54.504Z,70.74
2018-09-13T08:35:21.456Z,70.49
2018-09-13T08:37:48.416Z,70.83
2018-09-13T08:40:15.444Z,71.01
2018-09-13T08:42:42.315Z,70.11
2018-09-13T08:45:09.338Z,70.03
2018-09-13T08:47:36.240Z,71.15
2018-09-13T08:50:03.232Z,70.41
2018-09-13T08:52:30.164Z,70.90
2018-09-13T08:54:57.120Z,68.89
2018-09-13T08:57:24.092Z,69.20
2018-09-13T08:59:50.964Z,67.92
2018-09-13T09:02:17.889Z,68.40
2018-09-13T09:04:45.879Z,68.77
2018-09-13T09:07:12.771Z,68.31
2018-09-13T09:09:39.686Z,67.65
2018-09-13T09:12:06.563Z,67.81
2018-09-13T09:14:33.501Z,68.04
2018-09-13T09:17:00.455Z,68.21
2018-09-13T09:19:28.736Z,67.78
2018-09-13T09:21:55.628Z,68.01
2018-09-13T09:24:22.575Z,67.78
2018-09-13T09:26:49.531Z,67.73
2018-09-13T09:29:16.538Z,66.83
2018-09-13T09:31:43.495Z,67.93
2018-09-13T09:34:10.396Z,66.93
2018-09-13T09:36:37.339Z,66.68
2018-09-13T09:39:07.811Z,65.84
2018-09-13T09:41:34.767Z,65.83
2018-09-13T09:44:01.691Z,64.34
2018-09-13T09:46:28.571Z,65.00
2018-09-13T09:48:55.504Z,66.20
2018-09-13T09:51:22.460Z,63.40
2018-09-13T09:53:49.447Z,63.25
2018-09-13T09:56:16.432Z,64.62
2018-09-13T09:58:43.375Z,63.50
2018-09-13T10:01:15.947Z,64.88
2018-09-13T10:03:43.022Z,64.03
2018-09-13T10:06:09.747Z,63.85
2018-09-13T10:08:36.947Z,63.01
2018-09-13T10:11:03.826Z,61.80
2018-09-13T10:13:30.707Z,61.45
2018-09-13T10:16:03.602Z,61.48
2018-09-13T10:18:36.143Z,61.67
2018-09-13T10:21:08.863Z,62.13
2018-09-13T10:23:41.664Z,62.11
2018-09-13T10:26:14.248Z,61.96
2018-09-13T10:28:46.954Z,62.46
2018-09-13T10:31:19.543Z,62.49
2018-09-13T10:33:55.806Z,61.49
2018-09-13T10:36:28.680Z,62.63
2018-09-13T10:39:01.263Z,61.68
2018-09-13T10:41:33.811Z,59.96
2018-09-13T10:44:06.608Z,60.73
2018-09-13T10:46:33.562Z,61.33
2018-09-13T10:49:07.270Z,62.76
2018-09-13T10:51:39.956Z,64.77
2018-09-13T10:54:13.707Z,66.76
2018-09-13T10:56:41.027Z,66.79
2018-09-13T10:59:08.077Z,68.75
2018-09-13T11:01:34.916Z,69.26
2018-09-13T11:04:02.002Z,70.26
2018-09-13T11:06:28.892Z,71.49
2018-09-13T11:08:55.860Z,70.98
2018-09-13T11:11:22.771Z,70.64
2018-09-13T11:13:52.139Z,73.22
2018-09-13T11:16:19.556Z,70.77
2018-09-13T11:18:46.544Z,71.26
2018-09-13T11:21:13.517Z,72.43
2018-09-13T11:23:40.394Z,74.03
2018-09-13T11:26:07.392Z,71.70
2018-09-13T11:28:34.380Z,69.56
2018-09-13T11:31:01.915Z,73.90
2018-09-13T11:33:29.010Z,72.60
2018-09-13T11:35:56.091Z,73.80
2018-09-13T11:38:23.035Z,73.51
2018-09-13T11:40:50.149Z,72.84
2018-09-13T11:43:16.931Z,74.58
2018-09-13T11:45:43.803Z,74.27
2018-09-13T11:48:10.742Z,74.27
2018-09-13T11:50:37.716Z,72.57
2018-09-13T11:53:04.878Z,74.46
2018-09-13T11:55:31.820Z,74.56
2018-09-13T11:57:58.791Z,72.39
2018-09-13T12:00:25.751Z,71.88
2018-09-13T12:02:52.708Z,72.00
2018-09-13T12:05:19.663Z,72.64
2018-09-13T12:07:46.559Z,70.00
2018-09-13T12:10:13.486Z,67.71
2018-09-13T12:12:41.782Z,68.11
2018-09-13T12:15:09.095Z,68.61
2018-09-13T12:17:36.084Z,68.80
2018-09-13T12:20:03.176Z,67.93
2018-09-13T12:22:30.170Z,68.04
2018-09-13T12:24:57.053Z,68.77
2018-09-13T12:27:24.035Z,68.94
2018-09-13T12:29:50.904Z,67.62
2018-09-13T12:32:17.864Z,68.70
2018-09-13T12:34:44.795Z,66.68
2018-09-13T12:37:11.744Z,68.65
2018-09-13T12:39:38.767Z,68.16
2018-09-13T12:42:05.665Z,67.72
2018-09-13T12:44:32.636Z,68.15
2018-09-13T12:46:59.531Z,67.94
2018-09-13T12:49:26.443Z,67.50
2018-09-13T12:51:53.380Z,67.96
2018-09-13T12:54:20.335Z,67.75
2018-09-13T12:56:47.450Z,66.85
2018-09-13T12:59:14.252Z,64.73
2018-09-13T13:01:41.211Z,65.59
2018-09-13T13:04:08.092Z,65.60
2018-09-13T13:06:35.040Z,65.61
2018-09-13T13:09:02.291Z,65.13
2018-09-13T13:11:29.698Z,64.98
2018-09-13T13:13:56.660Z,66.72
2018-09-13T13:16:23.572Z,65.81
2018-09-13T13:18:50.544Z,65.55
2018-09-13T13:21:17.543Z,65.10
2018-09-13T13:23:44.487Z,66.50
2018-09-13T13:26:11.395Z,65.90
2018-09-13T13:28:38.280Z,66.36
2018-09-13T13:31:05.285Z,66.74
2018-09-13T13:33:32.240Z,63.89
2018-09-13T13:36:00.025Z,63.94
2018-09-13T13:38:26.948Z,65.41
2018-09-13T13:40:53.942Z,63.28
2018-09-13T13:43:20.984Z,63.88
2018-09-13T13:45:48.020Z,65.70
2018-09-13T13:48:15.001Z,64.82
2018-09-13T13:50:42.710Z,65.74
2018-09-13T13:53:10.713Z,64.63
2018-09-13T13:55:37.785Z,65.74
2018-09-13T13:58:05.460Z,64.07
2018-09-13T14:00:32.400Z,65.79
2018-09-13T14:02:59.460Z,65.73
2018-09-13T14:05:26.357Z,66.10
2018-09-13T14:07:53.310Z,66.22
2018-09-13T14:10:20.236Z,66.01
2018-09-13T14:12:47.135Z,65.48
2018-09-13T14:15:14.207Z,65.95
2018-09-13T14:17:41.459Z,65.49
2018-09-13T14:20:08.347Z,65.01
2018-09-13T14:22:35.228Z,63.70
2018-09-13T14:25:02.184Z,63.97
2018-09-13T14:27:29.671Z,64.74
2018-09-13T14:29:57.046Z,64.77
2018-09-13T14:32:23.892Z,64.97
2018-09-13T14:34:50.803Z,62.30
2018-09-13T14:37:17.812Z,62.29
2018-09-13T14:39:44.775Z,63.37
2018-09-13T14:42:11.739Z,65.45
2018-09-13T14:44:38.660Z,66.32
2018-09-13T14:47:05.619Z,64.44
2018-09-13T14:49:32.557Z,64.15
2018-09-13T14:51:59.431Z,65.06
2018-09-13T14:54:26.400Z,63.56
2018-09-13T14:56:53.401Z,65.28
2018-09-13T14:59:20.328Z,64.68
2018-09-13T15:01:47.288Z,64.66
2018-09-13T15:04:14.240Z,67.68
2018-09-13T15:06:41.211Z,69.21
2018-09-13T15:09:09.533Z,68.96
2018-09-13T15:11:36.503Z,68.35
2018-09-13T15:14:03.443Z,68.16
2018-09-13T15:16:30.361Z,68.58
2018-09-13T15:18:57.336Z,68.12
2018-09-13T15:21:24.268Z,70.25
2018-09-13T15:23:51.240Z,72.03
2018-09-13T15:26:18.124Z,72.82
2018-09-13T15:28:45.144Z,71.63
2018-09-13T15:31:12.194Z,72.32
2018-09-13T15:33:39.260Z,73.82
2018-09-13T15:36:06.227Z,74.43
2018-09-13T15:38:33.195Z,74.05
2018-09-13T15:41:00.219Z,75.23
2018-09-13T15:43:27.192Z,76.09
2018-09-13T15:45:54.188Z,75.74
2018-09-13T15:48:21.079Z,74.33
2018-09-13T15:50:48.199Z,75.11
2018-09-13T15:53:15.125Z,74.43
2018-09-13T15:55:42.096Z,72.79
2018-09-13T15:58:09.044Z,74.76
2018-09-13T16:00:35.986Z,76.63
2018-09-13T16:03:02.955Z,77.13
2018-09-13T16:05:29.941Z,76.91
2018-09-13T16:07:56.911Z,77.47
2018-09-13T16:10:23.828Z,78.03
2018-09-13T16:12:50.892Z,78.94
2018-09-13T16:15:17.731Z,79.20
2018-09-13T16:17:45.611Z,81.21
2018-09-13T16:20:12.496Z,82.13
2018-09-13T16:22:39.413Z,83.21
2018-09-13T16:25:06.391Z,83.16
2018-09-13T16:27:33.339Z,83.53
2018-09-13T16:30:00.287Z,83.21
2018-09-13T16:32:27.246Z,84.42
2018-09-13T16:34:55.230Z,83.72
2018-09-13T16:37:27.747Z,83.44
2018-09-13T16:40:00.992Z,83.23
2018-09-13T16:42:41.855Z,83.58
2018-09-13T16:45:09.224Z,82.55
2018-09-13T16:47:42.116Z,81.89
2018-09-13T16:50:08.955Z,82.10
2018-09-13T16:52:35.883Z,82.90
2018-09-13T16:55:02.836Z,81.90
2018-09-13T16:57:29.768Z,83.10
2018-09-13T16:59:56.647Z,83.46
2018-09-13T17:02:23.622Z,81.61
2018-09-13T17:04:50.604Z,83.07
2018-09-13T17:07:17.786Z,84.04
2018-09-13T17:09:44.891Z,81.63
2018-09-13T17:12:11.851Z,80.60
2018-09-13T17:14:38.798Z,83.59
2018-09-13T17:17:05.783Z,84.22
2018-09-13T17:19:32.723Z,84.63
2018-09-13T17:21:59.802Z,83.48
2018-09-13T17:24:26.747Z,84.08
2018-09-13T17:26:53.700Z,83.97
2018-09-13T17:29:20.563Z,85.50
2018-09-13T17:31:47.529Z,85.38
2018-09-13T17:34:14.569Z,86.62
2018-09-13T17:36:41.556Z,86.23
2018-09-13T17:39:09.795Z,85.31
2018-09-13T17:41:36.819Z,85.27
2018-09-13T17:44:03.784Z,85.04
2018-09-13T17:46:30.707Z,83.22
2018-09-13T17:48:57.681Z,84.22
2018-09-13T17:51:24.634Z,85.92
2018-09-13T17:53:51.503Z,86.27
2018-09-13T17:56:18.451Z,86.42
2018-09-13T17:58:45.408Z,86.38
2018-09-13T18:01:12.339Z,86.96
2018-09-13T18:03:39.386Z,86.24
2018-09-13T18:06:06.254Z,84.87
2018-09-13T18:08:33.224Z,86.12
2018-09-13T18:11:00.233Z,84.22
2018-09-13T18:13:27.113Z,85.31
2018-09-13T18:15:54.078Z,86.28
2018-09-13T18:18:21.043Z,86.24
2018-09-13T18:20:47.976Z,87.21
2018-09-13T18:23:14.883Z,87.06
2018-09-13T18:25:41.836Z,86.20
2018-09-13T18:28:09.807Z,87.52
2018-09-13T18:30:36.743Z,87.31
2018-09-13T18:33:03.707Z,88.96
2018-09-13T18:35:30.611Z,89.91
2018-09-13T18:37:57.599Z,90.40
2018-09-13T18:40:24.596Z,90.63
2018-09-13T18:42:51.566Z,91.55
2018-09-13T18:45:18.557Z,90.96
2018-09-13T18:47:45.471Z,90.84
2018-09-13T18:50:12.357Z,90.15
2018-09-13T18:52:39.333Z,89.12
2018-09-13T18:55:06.528Z,86.25
2018-09-13T18:57:33.665Z,87.80
2018-09-13T19:00:00.733Z,86.84
2018-09-13T19:02:27.756Z,87.03
2018-09-13T19:04:54.688Z,86.50
2018-09-13T19:07:22.116Z,83.19
2018-09-13T19:09:49.184Z,84.49
2018-09-13T19:12:16.196Z,84.88
2018-09-13T19:14:43.692Z,85.66
2018-09-13T19:17:11.183Z,82.39
2018-09-13T19:19:38.108Z,85.03
2018-09-13T19:22:06.177Z,85.93
2018-09-13T19:24:33.241Z,85.74
2018-09-13T19:27:01.038Z,84.87
2018-09-13T19:29:28.203Z,86.02
2018-09-13T19:31:55.179Z,86.85
2018-09-13T19:34:23.116Z,86.56
2018-09-13T19:36:50.153Z,88.32
2018-09-13T19:39:17.239Z,87.46
2018-09-13T19:41:44.254Z,88.26
2018-09-13T19:44:11.420Z,89.12
2018-09-13T19:46:38.803Z,89.32
2018-09-13T19:49:06.619Z,89.42
2018-09-13T19:51:33.751Z,88.92
2018-09-13T19:54:01.035Z,88.22
2018-09-13T19:56:28.174Z,89.21
2018-09-13T19:58:55.412Z,86.11
2018-09-13T20:01:22.396Z,86.95
2018-09-13T20:03:49.271Z,84.26
2018-09-13T20:06:16.218Z,87.04
2018-09-13T20:08:43.223Z,87.24
2018-09-13T20:11:10.216Z,88.12
2018-09-13T20:13:37.191Z,88.35
2018-09-13T20:16:04.271Z,87.62
2018-09-13T20:18:31.384Z,84.34
2018-09-13T20:20:58.431Z,86.53
2018-09-13T20:23:25.488Z,86.97
2018-09-13T20:25:52.556Z,86.66
2018-09-13T20:28:19.564Z,87.51
2018-09-13T20:30:46.512Z,87.35
2018-09-13T20:33:13.464Z,86.80
2018-09-13T20:35:40.385Z,86.99
2018-09-13T20:38:07.484Z,87.20
2018-09-13T20:40:34.407Z,88.32
2018-09-13T20:43:01.366Z,85.62
2018-09-13T20:45:28.242Z,87.37
2018-09-13T20:47:55.177Z,87.08
2018-09-13T20:50:22.159Z,87.85
2018-09-13T20:52:49.099Z,88.25
2018-09-13T20:55:16.108Z,88.35
2018-09-13T20:57:43.008Z,88.85
2018-09-13T21:00:14.138Z,89.52
2018-09-13T21:02:41.012Z,89.66
2018-09-13T21:05:07.985Z,90.14
2018-09-13T21:07:34.839Z,89.53
2018-09-13T21:10:01.807Z,89.43
2018-09-13T21:12:28.762Z,88.67
2018-09-13T21:14:55.687Z,88.60
2018-09-13T21:17:22.560Z,88.59
2018-09-13T21:19:49.503Z,88.02
2018-09-13T21:22:16.462Z,87.58
2018-09-13T21:24:43.334Z,87.89
2018-09-13T21:27:10.200Z,87.29
2018-09-13T21:29:37.204Z,86.84
2018-09-13T21:32:04.111Z,85.89
2018-09-13T21:34:31.188Z,86.43
2018-09-13T21:36:58.124Z,86.46
2018-09-13T21:39:25.036Z,85.43
2018-09-13T21:41:51.982Z,86.17
2018-09-13T21:44:18.955Z,86.33
2018-09-13T21:46:45.831Z,86.28
2018-09-13T21:49:12.718Z,86.81
2018-09-13T21:51:39.695Z,85.86
2018-09-13T21:54:06.671Z,85.96
2018-09-13T21:56:33.572Z,86.48
2018-09-13T21:59:00.637Z,85.90
2018-09-13T22:01:27.659Z,85.80
2018-09-13T22:03:54.533Z,85.44
2018-09-13T22:06:21.490Z,84.91
2018-09-13T22:08:48.448Z,84.86
2018-09-13T22:11:15.501Z,84.29
2018-09-13T22:13:42.403Z,84.39
2018-09-13T22:16:09.260Z,84.20
2018-09-13T22:18:37.239Z,84.65
2018-09-13T22:21:04.163Z,82.99
2018-09-13T22:23:31.024Z,84.18
2018-09-13T22:25:57.967Z,85.38
2018-09-13T22:28:24.926Z,85.08
2018-09-13T22:30:51.980Z,84.68
2018-09-13T22:33:18.843Z,84.98
2018-09-13T22:35:45.795Z,81.85
2018-09-13T22:38:12.793Z,83.14
2018-09-13T22:40:39.724Z,83.69
2018-09-13T22:43:06.716Z,84.35
2018-09-13T22:45:33.681Z,84.58
2018-09-13T22:48:00.556Z,84.09
2018-09-13T22:50:27.452Z,81.48
2018-09-13T22:52:54.411Z,83.34
2018-09-13T22:55:21.293Z,83.63
2018-09-13T22:57:48.255Z,84.54
2018-09-13T23:00:15.222Z,86.21
2018-09-13T23:02:47.656Z,86.38
2018-09-13T23:05:15.076Z,87.08
2018-09-13T23:07:41.919Z,87.23
2018-09-13T23:10:08.865Z,86.93
2018-09-13T23:12:35.836Z,86.27
2018-09-13T23:15:02.834Z,86.02
2018-09-13T23:17:29.814Z,87.14
2018-09-13T23:19:56.619Z,86.26
2018-09-13T23:22:23.565Z,86.06
2018-09-13T23:24:50.533Z,87.24
2018-09-13T23:27:17.482Z,86.88
2018-09-13T23:29:44.424Z,86.80
2018-09-13T23:32:11.384Z,87.42
2018-09-13T23:34:38.364Z,87.37
2018-09-13T23:37:05.340Z,86.34
2018-09-13T23:39:32.428Z,86.62
2018-09-13T23:41:59.236Z,87.17
2018-09-13T23:44:26.187Z,86.57
2018-09-13T23:46:53.116Z,86.92
2018-09-13T23:49:20.102Z,86.74
2018-09-13T23:51:47.024Z,88.18
2018-09-13T23:54:14.011Z,86.94
2018-09-13T23:56:40.930Z,87.94
2018-09-13T23:59:07.900Z,88.02
